Terminal Aerodrome Forecast
Issued by NWS

Home | Current Version | Previous Version | Text Only | Print | Product List | Glossary On
Versions: 1 2 3 4 5 6 7 8 9 10 11 12 13 14 15 16 17 18 19 20 21 22 23 24 25 26 27
682
FTUS43 KGRB 191345 AAA
TAFATW
TAF AMD
KATW 191345Z 1914/2012 29014G20KT P6SM OVC030
      TEMPO 1914/1916 SCT030
     FM191600 29012G18KT P6SM SCT035
     FM192200 26009KT P6SM SCT050 BKN090
     FM200300 23007KT P6SM SCT090=

USA.gov is the U.S. government's official web portal to all federal, state and local government web resources and services.